sensor_id;sensor_type;location;lat;lon;timestamp;temperature;humidity
20744;DHT22;56303;52.160;-0.428;2023-04-24T00:01:55;11.50;99.90
20744;DHT22;56303;52.160;-0.428;2023-04-24T00:04:23;11.50;99.90
20744;DHT22;56303;52.160;-0.428;2023-04-24T00:06:52;11.50;99.90
20744;DHT22;56303;52.160;-0.428;2023-04-24T00:09:24;11.60;99.90
20744;DHT22;56303;52.160;-0.428;2023-04-24T00:11:51;11.70;99.90
20744;DHT22;56303;52.160;-0.428;2023-04-24T00:14:17;11.60;99.90
20744;DHT22;56303;52.160;-0.428;2023-04-24T00:16:44;11.60;99.90
20744;DHT22;56303;52.160;-0.428;2023-04-24T00:19:11;13.10;99.90
20744;DHT22;56303;52.160;-0.428;2023-04-24T00:21:40;11.50;99.90
20744;DHT22;56303;52.160;-0.428;2023-04-24T00:24:07;11.60;99.90
20744;DHT22;56303;52.160;-0.428;2023-04-24T00:26:37;11.60;99.90
20744;DHT22;56303;52.160;-0.428;2023-04-24T00:29:04;11.70;99.90
20744;DHT22;56303;52.160;-0.428;2023-04-24T00:31:31;11.50;99.90
20744;DHT22;56303;52.160;-0.428;2023-04-24T00:33:58;11.40;99.90
20744;DHT22;56303;52.160;-0.428;2023-04-24T00:36:25;11.30;99.90
20744;DHT22;56303;52.160;-0.428;2023-04-24T00:38:52;11.60;99.90
20744;DHT22;56303;52.160;-0.428;2023-04-24T00:41:19;11.60;99.90
20744;DHT22;56303;52.160;-0.428;2023-04-24T00:43:46;11.50;99.90
20744;DHT22;56303;52.160;-0.428;2023-04-24T00:46:13;11.20;99.90
20744;DHT22;56303;52.160;-0.428;2023-04-24T00:48:41;10.80;99.90
20744;DHT22;56303;52.160;-0.428;2023-04-24T00:51:08;10.90;99.90
20744;DHT22;56303;52.160;-0.428;2023-04-24T00:53:35;10.30;99.90
20744;DHT22;56303;52.160;-0.428;2023-04-24T00:56:02;10.10;99.90
20744;DHT22;56303;52.160;-0.428;2023-04-24T00:58:30;10.20;99.90
20744;DHT22;56303;52.160;-0.428;2023-04-24T01:00:58;10.50;99.90
20744;DHT22;56303;52.160;-0.428;2023-04-24T01:03:30;10.80;99.90
20744;DHT22;56303;52.160;-0.428;2023-04-24T01:05:58;10.80;99.90
20744;DHT22;56303;52.160;-0.428;2023-04-24T01:08:26;11.00;99.90
20744;DHT22;56303;52.160;-0.428;2023-04-24T01:10:55;10.80;99.90
20744;DHT22;56303;52.160;-0.428;2023-04-24T01:13:23;10.90;99.90
20744;DHT22;56303;52.160;-0.428;2023-04-24T01:15:50;11.00;99.90
20744;DHT22;56303;52.160;-0.428;2023-04-24T01:18:17;11.00;99.90
20744;DHT22;56303;52.160;-0.428;2023-04-24T01:20:45;11.00;99.90
20744;DHT22;56303;52.160;-0.428;2023-04-24T01:23:13;11.20;99.90
20744;DHT22;56303;52.160;-0.428;2023-04-24T01:25:40;11.20;99.90
20744;DHT22;56303;52.160;-0.428;2023-04-24T01:28:07;11.10;99.90
20744;DHT22;56303;52.160;-0.428;2023-04-24T01:30:34;11.00;99.90
20744;DHT22;56303;52.160;-0.428;2023-04-24T01:33:01;10.70;99.90
20744;DHT22;56303;52.160;-0.428;2023-04-24T01:35:29;11.00;99.90
20744;DHT22;56303;52.160;-0.428;2023-04-24T01:37:56;10.70;99.90
20744;DHT22;56303;52.160;-0.428;2023-04-24T01:40:23;11.10;99.90
20744;DHT22;56303;52.160;-0.428;2023-04-24T01:42:50;10.70;99.90
20744;DHT22;56303;52.160;-0.428;2023-04-24T01:45:17;10.80;99.90
20744;DHT22;56303;52.160;-0.428;2023-04-24T01:47:45;10.90;99.90
20744;DHT22;56303;52.160;-0.428;2023-04-24T01:50:13;11.00;99.90
20744;DHT22;56303;52.160;-0.428;2023-04-24T01:52:40;11.10;99.90
20744;DHT22;56303;52.160;-0.428;2023-04-24T01:55:07;11.30;99.90
20744;DHT22;56303;52.160;-0.428;2023-04-24T01:57:34;11.10;99.90
20744;DHT22;56303;52.160;-0.428;2023-04-24T02:00:03;11.20;99.90
20744;DHT22;56303;52.160;-0.428;2023-04-24T02:02:31;11.40;99.90
20744;DHT22;56303;52.160;-0.428;2023-04-24T02:04:58;11.20;99.90
20744;DHT22;56303;52.160;-0.428;2023-04-24T02:07:25;11.40;99.90
20744;DHT22;56303;52.160;-0.428;2023-04-24T02:09:52;11.30;99.90
20744;DHT22;56303;52.160;-0.428;2023-04-24T02:12:19;11.30;99.90
20744;DHT22;56303;52.160;-0.428;2023-04-24T02:14:46;11.00;99.90
20744;DHT22;56303;52.160;-0.428;2023-04-24T02:17:13;10.80;99.90
20744;DHT22;56303;52.160;-0.428;2023-04-24T02:19:40;11.10;99.90
20744;DHT22;56303;52.160;-0.428;2023-04-24T02:22:08;10.90;99.90
20744;DHT22;56303;52.160;-0.428;2023-04-24T02:24:34;11.00;99.90
20744;DHT22;56303;52.160;-0.428;2023-04-24T02:27:01;10.80;99.90
20744;DHT22;56303;52.160;-0.428;2023-04-24T02:29:29;10.50;99.90
20744;DHT22;56303;52.160;-0.428;2023-04-24T02:31:56;10.30;99.90
20744;DHT22;56303;52.160;-0.428;2023-04-24T02:34:23;10.30;99.90
20744;DHT22;56303;52.160;-0.428;2023-04-24T02:36:50;10.10;99.90
20744;DHT22;56303;52.160;-0.428;2023-04-24T02:39:16;10.10;99.90
20744;DHT22;56303;52.160;-0.428;2023-04-24T02:41:43;9.80;99.90
20744;DHT22;56303;52.160;-0.428;2023-04-24T02:44:10;9.70;99.90
20744;DHT22;56303;52.160;-0.428;2023-04-24T02:46:37;9.90;99.90
20744;DHT22;56303;52.160;-0.428;2023-04-24T02:49:04;9.40;99.90
20744;DHT22;56303;52.160;-0.428;2023-04-24T02:51:31;9.70;99.90
20744;DHT22;56303;52.160;-0.428;2023-04-24T02:53:58;9.50;99.90
20744;DHT22;56303;52.160;-0.428;2023-04-24T02:56:24;9.70;99.90
20744;DHT22;56303;52.160;-0.428;2023-04-24T02:58:51;9.50;99.90
20744;DHT22;56303;52.160;-0.428;2023-04-24T03:01:19;9.30;99.90
20744;DHT22;56303;52.160;-0.428;2023-04-24T03:03:46;9.30;99.90
20744;DHT22;56303;52.160;-0.428;2023-04-24T03:06:12;9.30;99.90
20744;DHT22;56303;52.160;-0.428;2023-04-24T03:08:39;9.30;99.90
20744;DHT22;56303;52.160;-0.428;2023-04-24T03:11:06;9.20;99.90
20744;DHT22;56303;52.160;-0.428;2023-04-24T03:13:33;9.20;99.90
20744;DHT22;56303;52.160;-0.428;2023-04-24T03:16:00;9.20;99.90
20744;DHT22;56303;52.160;-0.428;2023-04-24T03:18:27;9.20;99.90
20744;DHT22;56303;52.160;-0.428;2023-04-24T03:20:53;9.40;99.90
20744;DHT22;56303;52.160;-0.428;2023-04-24T03:23:20;9.30;99.90
20744;DHT22;56303;52.160;-0.428;2023-04-24T03:25:47;9.00;99.90
20744;DHT22;56303;52.160;-0.428;2023-04-24T03:28:15;9.10;99.90
20744;DHT22;56303;52.160;-0.428;2023-04-24T03:30:41;8.90;99.90
20744;DHT22;56303;52.160;-0.428;2023-04-24T03:33:08;8.80;99.90
20744;DHT22;56303;52.160;-0.428;2023-04-24T03:35:36;8.90;99.90
20744;DHT22;56303;52.160;-0.428;2023-04-24T03:38:03;8.70;99.90
20744;DHT22;56303;52.160;-0.428;2023-04-24T03:40:31;8.70;99.90
20744;DHT22;56303;52.160;-0.428;2023-04-24T03:43:00;8.80;99.90
20744;DHT22;56303;52.160;-0.428;2023-04-24T03:45:26;9.20;99.90
20744;DHT22;56303;52.160;-0.428;2023-04-24T03:47:53;9.00;99.90
20744;DHT22;56303;52.160;-0.428;2023-04-24T03:50:20;8.90;99.90
20744;DHT22;56303;52.160;-0.428;2023-04-24T03:52:47;8.60;99.90
20744;DHT22;56303;52.160;-0.428;2023-04-24T03:55:13;8.50;99.90
20744;DHT22;56303;52.160;-0.428;2023-04-24T03:57:41;8.50;99.90
20744;DHT22;56303;52.160;-0.428;2023-04-24T04:00:08;8.50;99.90
20744;DHT22;56303;52.160;-0.428;2023-04-24T04:02:35;8.60;99.90
20744;DHT22;56303;52.160;-0.428;2023-04-24T04:05:02;8.60;99.90
20744;DHT22;56303;52.160;-0.428;2023-04-24T04:07:30;8.70;99.90
20744;DHT22;56303;52.160;-0.428;2023-04-24T04:09:56;8.60;99.90
20744;DHT22;56303;52.160;-0.428;2023-04-24T04:12:23;8.60;99.90
20744;DHT22;56303;52.160;-0.428;2023-04-24T04:14:50;8.50;99.90
20744;DHT22;56303;52.160;-0.428;2023-04-24T04:17:17;8.40;99.90
20744;DHT22;56303;52.160;-0.428;2023-04-24T04:19:44;8.10;99.90
20744;DHT22;56303;52.160;-0.428;2023-04-24T04:22:11;8.00;99.90
20744;DHT22;56303;52.160;-0.428;2023-04-24T04:24:38;8.10;99.90
20744;DHT22;56303;52.160;-0.428;2023-04-24T04:27:07;8.00;99.90
20744;DHT22;56303;52.160;-0.428;2023-04-24T04:29:34;8.10;99.90
20744;DHT22;56303;52.160;-0.428;2023-04-24T04:32:02;8.00;99.90
20744;DHT22;56303;52.160;-0.428;2023-04-24T04:34:29;8.00;99.90
20744;DHT22;56303;52.160;-0.428;2023-04-24T04:36:56;8.20;99.90
20744;DHT22;56303;52.160;-0.428;2023-04-24T04:39:25;8.10;99.90
20744;DHT22;56303;52.160;-0.428;2023-04-24T04:41:54;8.10;99.90
20744;DHT22;56303;52.160;-0.428;2023-04-24T04:44:21;8.30;99.90
20744;DHT22;56303;52.160;-0.428;2023-04-24T04:46:48;8.20;99.90
20744;DHT22;56303;52.160;-0.428;2023-04-24T04:49:15;8.20;99.90
20744;DHT22;56303;52.160;-0.428;2023-04-24T04:51:43;8.20;99.90
20744;DHT22;56303;52.160;-0.428;2023-04-24T04:54:10;8.20;99.90
20744;DHT22;56303;52.160;-0.428;2023-04-24T04:56:36;8.00;99.90
20744;DHT22;56303;52.160;-0.428;2023-04-24T04:59:03;8.00;99.90
20744;DHT22;56303;52.160;-0.428;2023-04-24T05:01:30;8.10;99.90
20744;DHT22;56303;52.160;-0.428;2023-04-24T05:03:57;8.00;99.90
20744;DHT22;56303;52.160;-0.428;2023-04-24T05:06:24;8.20;99.90
20744;DHT22;56303;52.160;-0.428;2023-04-24T05:08:52;8.30;99.90
20744;DHT22;56303;52.160;-0.428;2023-04-24T05:11:24;8.40;99.90
20744;DHT22;56303;52.160;-0.428;2023-04-24T05:13:50;8.50;99.90
20744;DHT22;56303;52.160;-0.428;2023-04-24T05:16:17;8.50;99.90
20744;DHT22;56303;52.160;-0.428;2023-04-24T05:18:45;8.20;99.90
20744;DHT22;56303;52.160;-0.428;2023-04-24T05:21:11;8.30;99.90
20744;DHT22;56303;52.160;-0.428;2023-04-24T05:23:38;8.30;99.90
20744;DHT22;56303;52.160;-0.428;2023-04-24T05:26:05;8.60;99.90
20744;DHT22;56303;52.160;-0.428;2023-04-24T05:28:33;8.40;99.90
20744;DHT22;56303;52.160;-0.428;2023-04-24T05:31:03;8.20;99.90
20744;DHT22;56303;52.160;-0.428;2023-04-24T05:33:30;8.30;99.90
20744;DHT22;56303;52.160;-0.428;2023-04-24T05:35:57;8.50;99.90
20744;DHT22;56303;52.160;-0.428;2023-04-24T05:38:24;8.70;99.90
20744;DHT22;56303;52.160;-0.428;2023-04-24T05:40:51;8.60;99.90
20744;DHT22;56303;52.160;-0.428;2023-04-24T05:43:18;8.80;99.90
20744;DHT22;56303;52.160;-0.428;2023-04-24T05:45:44;8.80;99.90
20744;DHT22;56303;52.160;-0.428;2023-04-24T05:48:14;8.60;99.90
20744;DHT22;56303;52.160;-0.428;2023-04-24T05:50:42;8.60;99.90
20744;DHT22;56303;52.160;-0.428;2023-04-24T05:53:08;8.80;99.90
20744;DHT22;56303;52.160;-0.428;2023-04-24T05:55:37;8.80;99.90
20744;DHT22;56303;52.160;-0.428;2023-04-24T05:58:04;9.10;99.90
20744;DHT22;56303;52.160;-0.428;2023-04-24T06:00:31;8.90;99.90
20744;DHT22;56303;52.160;-0.428;2023-04-24T06:03:00;8.50;99.90
20744;DHT22;56303;52.160;-0.428;2023-04-24T06:05:27;8.40;99.90
20744;DHT22;56303;52.160;-0.428;2023-04-24T06:07:54;8.40;99.90
20744;DHT22;56303;52.160;-0.428;2023-04-24T06:10:22;8.50;99.90
20744;DHT22;56303;52.160;-0.428;2023-04-24T06:12:49;8.40;99.90
20744;DHT22;56303;52.160;-0.428;2023-04-24T06:15:16;8.70;99.90
20744;DHT22;56303;52.160;-0.428;2023-04-24T06:17:43;8.80;99.90
20744;DHT22;56303;52.160;-0.428;2023-04-24T06:20:10;8.90;99.90
20744;DHT22;56303;52.160;-0.428;2023-04-24T06:22:37;8.80;99.90
20744;DHT22;56303;52.160;-0.428;2023-04-24T06:25:07;9.20;99.90
20744;DHT22;56303;52.160;-0.428;2023-04-24T06:27:34;9.00;99.90
20744;DHT22;56303;52.160;-0.428;2023-04-24T06:30:02;9.10;99.90
20744;DHT22;56303;52.160;-0.428;2023-04-24T06:32:29;9.20;99.90
20744;DHT22;56303;52.160;-0.428;2023-04-24T06:34:57;9.40;99.90
20744;DHT22;56303;52.160;-0.428;2023-04-24T06:37:25;9.30;99.90
20744;DHT22;56303;52.160;-0.428;2023-04-24T06:39:52;9.30;99.90
20744;DHT22;56303;52.160;-0.428;2023-04-24T06:42:19;9.00;99.90
20744;DHT22;56303;52.160;-0.428;2023-04-24T06:44:47;9.20;99.90
20744;DHT22;56303;52.160;-0.428;2023-04-24T06:47:14;9.00;99.90
20744;DHT22;56303;52.160;-0.428;2023-04-24T06:49:41;9.30;99.90
20744;DHT22;56303;52.160;-0.428;2023-04-24T06:52:09;9.10;99.90
20744;DHT22;56303;52.160;-0.428;2023-04-24T06:54:36;8.40;99.90
20744;DHT22;56303;52.160;-0.428;2023-04-24T06:57:02;9.00;99.90
20744;DHT22;56303;52.160;-0.428;2023-04-24T06:59:30;9.20;99.90
20744;DHT22;56303;52.160;-0.428;2023-04-24T07:01:57;9.30;99.90
20744;DHT22;56303;52.160;-0.428;2023-04-24T07:04:24;9.40;99.90
20744;DHT22;56303;52.160;-0.428;2023-04-24T07:06:52;9.30;99.90
20744;DHT22;56303;52.160;-0.428;2023-04-24T07:09:22;9.40;99.90
20744;DHT22;56303;52.160;-0.428;2023-04-24T07:11:50;9.50;99.90
20744;DHT22;56303;52.160;-0.428;2023-04-24T07:14:17;9.40;99.90
20744;DHT22;56303;52.160;-0.428;2023-04-24T07:16:46;9.00;99.90
20744;DHT22;56303;52.160;-0.428;2023-04-24T07:19:13;9.30;99.90
20744;DHT22;56303;52.160;-0.428;2023-04-24T07:21:40;9.20;99.90
20744;DHT22;56303;52.160;-0.428;2023-04-24T07:24:07;9.50;99.90
20744;DHT22;56303;52.160;-0.428;2023-04-24T07:26:37;9.10;99.90
20744;DHT22;56303;52.160;-0.428;2023-04-24T07:29:05;9.40;99.90
20744;DHT22;56303;52.160;-0.428;2023-04-24T07:31:32;9.30;99.90
20744;DHT22;56303;52.160;-0.428;2023-04-24T07:33:59;9.50;99.90
20744;DHT22;56303;52.160;-0.428;2023-04-24T07:36:26;9.50;99.90
20744;DHT22;56303;52.160;-0.428;2023-04-24T07:38:54;9.80;99.90
20744;DHT22;56303;52.160;-0.428;2023-04-24T07:41:22;9.50;99.90
20744;DHT22;56303;52.160;-0.428;2023-04-24T07:43:51;9.80;99.90
20744;DHT22;56303;52.160;-0.428;2023-04-24T07:46:19;10.00;99.90
20744;DHT22;56303;52.160;-0.428;2023-04-24T07:48:46;9.90;99.90
20744;DHT22;56303;52.160;-0.428;2023-04-24T07:51:31;10.40;99.90
20744;DHT22;56303;52.160;-0.428;2023-04-24T07:54:00;10.30;99.90
20744;DHT22;56303;52.160;-0.428;2023-04-24T07:56:26;10.70;99.90
20744;DHT22;56303;52.160;-0.428;2023-04-24T07:58:53;10.60;99.90
20744;DHT22;56303;52.160;-0.428;2023-04-24T08:01:20;11.00;99.90
20744;DHT22;56303;52.160;-0.428;2023-04-24T08:03:47;11.20;99.90
20744;DHT22;56303;52.160;-0.428;2023-04-24T08:06:14;11.10;99.90
20744;DHT22;56303;52.160;-0.428;2023-04-24T08:08:41;10.80;99.90
20744;DHT22;56303;52.160;-0.428;2023-04-24T08:11:08;10.80;99.90
20744;DHT22;56303;52.160;-0.428;2023-04-24T08:13:35;10.40;99.90
20744;DHT22;56303;52.160;-0.428;2023-04-24T08:16:02;10.80;99.90
20744;DHT22;56303;52.160;-0.428;2023-04-24T08:18:29;10.70;99.90
20744;DHT22;56303;52.160;-0.428;2023-04-24T08:20:56;10.30;99.90
20744;DHT22;56303;52.160;-0.428;2023-04-24T08:23:27;10.90;99.90
20744;DHT22;56303;52.160;-0.428;2023-04-24T08:25:56;10.80;99.90
20744;DHT22;56303;52.160;-0.428;2023-04-24T08:28:23;10.80;99.90
20744;DHT22;56303;52.160;-0.428;2023-04-24T08:30:50;10.40;99.90
20744;DHT22;56303;52.160;-0.428;2023-04-24T08:33:24;10.40;99.90
20744;DHT22;56303;52.160;-0.428;2023-04-24T08:35:52;10.70;99.90
20744;DHT22;56303;52.160;-0.428;2023-04-24T08:38:19;10.90;99.90
20744;DHT22;56303;52.160;-0.428;2023-04-24T08:40:46;11.00;99.90
20744;DHT22;56303;52.160;-0.428;2023-04-24T08:43:16;11.10;99.90
20744;DHT22;56303;52.160;-0.428;2023-04-24T08:45:43;11.40;99.90
20744;DHT22;56303;52.160;-0.428;2023-04-24T08:48:11;11.10;99.90
20744;DHT22;56303;52.160;-0.428;2023-04-24T08:50:56;10.90;99.90
20744;DHT22;56303;52.160;-0.428;2023-04-24T08:53:25;11.10;99.90
20744;DHT22;56303;52.160;-0.428;2023-04-24T08:55:54;11.70;99.90
20744;DHT22;56303;52.160;-0.428;2023-04-24T08:58:25;11.80;99.90
20744;DHT22;56303;52.160;-0.428;2023-04-24T09:00:54;11.90;99.90
20744;DHT22;56303;52.160;-0.428;2023-04-24T09:03:21;12.20;99.90
20744;DHT22;56303;52.160;-0.428;2023-04-24T09:05:49;11.90;99.90
20744;DHT22;56303;52.160;-0.428;2023-04-24T09:08:18;11.60;99.90
20744;DHT22;56303;52.160;-0.428;2023-04-24T09:10:46;11.30;99.90
20744;DHT22;56303;52.160;-0.428;2023-04-24T09:13:17;11.90;99.90
20744;DHT22;56303;52.160;-0.428;2023-04-24T09:15:45;11.90;99.90
20744;DHT22;56303;52.160;-0.428;2023-04-24T09:18:12;11.70;99.90
20744;DHT22;56303;52.160;-0.428;2023-04-24T09:20:58;11.60;99.90
20744;DHT22;56303;52.160;-0.428;2023-04-24T09:23:32;12.00;99.90
20744;DHT22;56303;52.160;-0.428;2023-04-24T09:26:00;12.20;99.90
20744;DHT22;56303;52.160;-0.428;2023-04-24T09:28:32;11.80;99.90
20744;DHT22;56303;52.160;-0.428;2023-04-24T09:31:13;11.00;99.90
20744;DHT22;56303;52.160;-0.428;2023-04-24T09:34:02;11.40;99.90
20744;DHT22;56303;52.160;-0.428;2023-04-24T09:36:37;11.60;99.90
20744;DHT22;56303;52.160;-0.428;2023-04-24T09:39:12;11.40;99.90
20744;DHT22;56303;52.160;-0.428;2023-04-24T09:41:50;11.10;99.90
20744;DHT22;56303;52.160;-0.428;2023-04-24T09:44:20;11.70;99.90
20744;DHT22;56303;52.160;-0.428;2023-04-24T09:46:56;12.10;99.90
20744;DHT22;56303;52.160;-0.428;2023-04-24T09:49:25;12.10;99.90
20744;DHT22;56303;52.160;-0.428;2023-04-24T09:52:02;12.10;99.90
20744;DHT22;56303;52.160;-0.428;2023-04-24T09:54:29;13.60;99.90
20744;DHT22;56303;52.160;-0.428;2023-04-24T09:56:56;13.10;99.90
20744;DHT22;56303;52.160;-0.428;2023-04-24T09:59:23;12.60;99.90
20744;DHT22;56303;52.160;-0.428;2023-04-24T10:01:52;12.70;99.90
20744;DHT22;56303;52.160;-0.428;2023-04-24T10:04:24;12.60;99.90
20744;DHT22;56303;52.160;-0.428;2023-04-24T10:06:53;12.40;99.90
20744;DHT22;56303;52.160;-0.428;2023-04-24T10:09:23;12.60;99.90
20744;DHT22;56303;52.160;-0.428;2023-04-24T10:11:52;12.50;99.90
20744;DHT22;56303;52.160;-0.428;2023-04-24T10:14:24;12.60;99.90
20744;DHT22;56303;52.160;-0.428;2023-04-24T10:16:54;13.10;99.90
20744;DHT22;56303;52.160;-0.428;2023-04-24T10:19:21;13.30;99.90
20744;DHT22;56303;52.160;-0.428;2023-04-24T10:21:52;13.70;99.90
20744;DHT22;56303;52.160;-0.428;2023-04-24T10:24:21;12.80;99.90
20744;DHT22;56303;52.160;-0.428;2023-04-24T10:26:48;12.80;99.90
20744;DHT22;56303;52.160;-0.428;2023-04-24T10:29:17;13.30;99.90
20744;DHT22;56303;52.160;-0.428;2023-04-24T10:31:44;12.70;99.90
20744;DHT22;56303;52.160;-0.428;2023-04-24T10:34:18;12.70;99.90
20744;DHT22;56303;52.160;-0.428;2023-04-24T10:36:54;13.20;99.90
20744;DHT22;56303;52.160;-0.428;2023-04-24T10:39:24;13.00;99.90
20744;DHT22;56303;52.160;-0.428;2023-04-24T10:41:54;13.10;99.90
20744;DHT22;56303;52.160;-0.428;2023-04-24T10:44:24;13.30;99.90
20744;DHT22;56303;52.160;-0.428;2023-04-24T10:46:55;13.30;99.90
20744;DHT22;56303;52.160;-0.428;2023-04-24T10:49:30;13.60;99.90
20744;DHT22;56303;52.160;-0.428;2023-04-24T10:52:01;13.50;99.90
20744;DHT22;56303;52.160;-0.428;2023-04-24T10:54:44;14.00;99.90
20744;DHT22;56303;52.160;-0.428;2023-04-24T10:59:49;14.20;99.90
20744;DHT22;56303;52.160;-0.428;2023-04-24T11:02:16;14.00;99.90
20744;DHT22;56303;52.160;-0.428;2023-04-24T11:04:44;14.00;99.90
20744;DHT22;56303;52.160;-0.428;2023-04-24T11:07:12;13.80;99.90
20744;DHT22;56303;52.160;-0.428;2023-04-24T11:09:42;13.80;99.90
20744;DHT22;56303;52.160;-0.428;2023-04-24T11:12:11;14.40;99.90
20744;DHT22;56303;52.160;-0.428;2023-04-24T11:17:31;14.30;99.90
20744;DHT22;56303;52.160;-0.428;2023-04-24T11:20:17;14.30;99.90
20744;DHT22;56303;52.160;-0.428;2023-04-24T11:22:54;14.20;99.90
20744;DHT22;56303;52.160;-0.428;2023-04-24T11:25:22;14.60;99.90
20744;DHT22;56303;52.160;-0.428;2023-04-24T11:27:50;14.10;99.90
20744;DHT22;56303;52.160;-0.428;2023-04-24T11:30:18;14.20;99.90
20744;DHT22;56303;52.160;-0.428;2023-04-24T11:32:48;14.80;99.90
20744;DHT22;56303;52.160;-0.428;2023-04-24T11:35:23;14.40;99.90
20744;DHT22;56303;52.160;-0.428;2023-04-24T11:37:55;13.90;99.90
20744;DHT22;56303;52.160;-0.428;2023-04-24T11:40:25;14.60;99.90
20744;DHT22;56303;52.160;-0.428;2023-04-24T11:42:53;14.30;99.90
20744;DHT22;56303;52.160;-0.428;2023-04-24T11:45:28;13.90;99.90
20744;DHT22;56303;52.160;-0.428;2023-04-24T11:47:55;14.10;99.90
20744;DHT22;56303;52.160;-0.428;2023-04-24T11:50:23;14.70;99.90
20744;DHT22;56303;52.160;-0.428;2023-04-24T11:52:52;15.00;99.90
20744;DHT22;56303;52.160;-0.428;2023-04-24T11:57:49;14.60;99.90
20744;DHT22;56303;52.160;-0.428;2023-04-24T12:00:21;14.40;99.90
20744;DHT22;56303;52.160;-0.428;2023-04-24T12:02:49;15.30;99.90
20744;DHT22;56303;52.160;-0.428;2023-04-24T12:07:49;15.40;99.90
20744;DHT22;56303;52.160;-0.428;2023-04-24T12:10:27;15.50;99.90
20744;DHT22;56303;52.160;-0.428;2023-04-24T12:12:56;15.70;99.90
20744;DHT22;56303;52.160;-0.428;2023-04-24T12:15:23;16.00;99.90
20744;DHT22;56303;52.160;-0.428;2023-04-24T12:17:51;15.90;99.90
20744;DHT22;56303;52.160;-0.428;2023-04-24T12:20:25;15.50;99.90
20744;DHT22;56303;52.160;-0.428;2023-04-24T12:22:53;15.20;99.90
20744;DHT22;56303;52.160;-0.428;2023-04-24T12:25:29;14.50;99.90
20744;DHT22;56303;52.160;-0.428;2023-04-24T12:30:40;15.10;99.90
20744;DHT22;56303;52.160;-0.428;2023-04-24T12:33:07;15.30;99.90
20744;DHT22;56303;52.160;-0.428;2023-04-24T12:35:34;15.80;99.90
20744;DHT22;56303;52.160;-0.428;2023-04-24T12:38:10;15.40;99.90
20744;DHT22;56303;52.160;-0.428;2023-04-24T12:40:40;15.40;99.90
20744;DHT22;56303;52.160;-0.428;2023-04-24T12:43:19;15.50;99.90
20744;DHT22;56303;52.160;-0.428;2023-04-24T12:45:47;15.20;99.90
20744;DHT22;56303;52.160;-0.428;2023-04-24T12:48:17;15.00;99.90
20744;DHT22;56303;52.160;-0.428;2023-04-24T12:50:44;15.20;99.90
20744;DHT22;56303;52.160;-0.428;2023-04-24T12:53:13;16.00;99.90
20744;DHT22;56303;52.160;-0.428;2023-04-24T12:55:40;15.90;99.90
20744;DHT22;56303;52.160;-0.428;2023-04-24T12:58:07;15.60;99.90
20744;DHT22;56303;52.160;-0.428;2023-04-24T13:00:38;15.80;99.90
20744;DHT22;56303;52.160;-0.428;2023-04-24T13:03:05;15.60;99.90
20744;DHT22;56303;52.160;-0.428;2023-04-24T13:05:32;15.80;99.90
20744;DHT22;56303;52.160;-0.428;2023-04-24T13:07:59;14.20;99.90
20744;DHT22;56303;52.160;-0.428;2023-04-24T13:10:26;14.10;99.90
20744;DHT22;56303;52.160;-0.428;2023-04-24T13:12:53;15.10;99.90
20744;DHT22;56303;52.160;-0.428;2023-04-24T13:15:20;15.30;99.90
20744;DHT22;56303;52.160;-0.428;2023-04-24T13:17:46;15.40;99.90
20744;DHT22;56303;52.160;-0.428;2023-04-24T13:20:14;15.70;99.90
20744;DHT22;56303;52.160;-0.428;2023-04-24T13:22:41;16.00;99.90
20744;DHT22;56303;52.160;-0.428;2023-04-24T13:25:08;16.70;99.90
20744;DHT22;56303;52.160;-0.428;2023-04-24T13:30:04;17.00;99.60
20744;DHT22;56303;52.160;-0.428;2023-04-24T13:32:32;16.40;99.90
20744;DHT22;56303;52.160;-0.428;2023-04-24T13:34:59;15.50;99.90
20744;DHT22;56303;52.160;-0.428;2023-04-24T13:37:26;15.60;99.90
20744;DHT22;56303;52.160;-0.428;2023-04-24T13:39:53;16.10;99.90
20744;DHT22;56303;52.160;-0.428;2023-04-24T13:42:20;16.20;99.90
20744;DHT22;56303;52.160;-0.428;2023-04-24T13:44:47;15.70;99.90
20744;DHT22;56303;52.160;-0.428;2023-04-24T13:47:14;15.30;99.90
20744;DHT22;56303;52.160;-0.428;2023-04-24T13:49:41;15.30;99.90
20744;DHT22;56303;52.160;-0.428;2023-04-24T13:52:07;15.40;99.90
20744;DHT22;56303;52.160;-0.428;2023-04-24T13:54:36;15.30;99.90
20744;DHT22;56303;52.160;-0.428;2023-04-24T13:57:03;15.20;99.90
20744;DHT22;56303;52.160;-0.428;2023-04-24T13:59:30;15.20;99.90
20744;DHT22;56303;52.160;-0.428;2023-04-24T14:01:57;15.00;99.90
20744;DHT22;56303;52.160;-0.428;2023-04-24T14:04:24;14.70;99.90
20744;DHT22;56303;52.160;-0.428;2023-04-24T14:06:53;13.90;99.90
20744;DHT22;56303;52.160;-0.428;2023-04-24T14:09:20;13.70;99.90
20744;DHT22;56303;52.160;-0.428;2023-04-24T14:11:46;13.10;99.90
20744;DHT22;56303;52.160;-0.428;2023-04-24T14:14:13;12.80;99.90
20744;DHT22;56303;52.160;-0.428;2023-04-24T14:16:40;12.70;99.90
20744;DHT22;56303;52.160;-0.428;2023-04-24T14:19:07;13.50;99.90
20744;DHT22;56303;52.160;-0.428;2023-04-24T14:21:34;13.30;99.90
20744;DHT22;56303;52.160;-0.428;2023-04-24T14:24:01;13.20;99.90
20744;DHT22;56303;52.160;-0.428;2023-04-24T14:26:28;12.70;99.90
20744;DHT22;56303;52.160;-0.428;2023-04-24T14:28:54;12.90;99.90
20744;DHT22;56303;52.160;-0.428;2023-04-24T14:31:39;12.70;99.90
20744;DHT22;56303;52.160;-0.428;2023-04-24T14:34:06;12.30;99.90
20744;DHT22;56303;52.160;-0.428;2023-04-24T14:36:33;12.60;99.90
20744;DHT22;56303;52.160;-0.428;2023-04-24T14:39:00;12.50;99.90
20744;DHT22;56303;52.160;-0.428;2023-04-24T14:41:29;12.10;99.90
20744;DHT22;56303;52.160;-0.428;2023-04-24T14:43:56;12.20;99.90
20744;DHT22;56303;52.160;-0.428;2023-04-24T14:46:23;12.50;99.90
20744;DHT22;56303;52.160;-0.428;2023-04-24T14:48:50;12.60;99.90
20744;DHT22;56303;52.160;-0.428;2023-04-24T14:51:17;12.30;99.90
20744;DHT22;56303;52.160;-0.428;2023-04-24T14:53:44;12.40;99.90
20744;DHT22;56303;52.160;-0.428;2023-04-24T14:56:14;12.50;99.90
20744;DHT22;56303;52.160;-0.428;2023-04-24T14:58:40;12.70;99.90
20744;DHT22;56303;52.160;-0.428;2023-04-24T15:01:07;12.50;99.90
20744;DHT22;56303;52.160;-0.428;2023-04-24T15:03:34;12.20;99.90
20744;DHT22;56303;52.160;-0.428;2023-04-24T15:06:01;12.10;99.90
20744;DHT22;56303;52.160;-0.428;2023-04-24T15:08:28;12.00;99.90
20744;DHT22;56303;52.160;-0.428;2023-04-24T15:10:55;11.70;99.90
20744;DHT22;56303;52.160;-0.428;2023-04-24T15:13:22;11.40;99.90
20744;DHT22;56303;52.160;-0.428;2023-04-24T15:15:49;11.20;99.90
20744;DHT22;56303;52.160;-0.428;2023-04-24T15:18:16;11.30;99.90
20744;DHT22;56303;52.160;-0.428;2023-04-24T15:20:43;11.40;99.90
20744;DHT22;56303;52.160;-0.428;2023-04-24T15:23:10;11.50;99.90
20744;DHT22;56303;52.160;-0.428;2023-04-24T15:25:37;11.50;99.90
20744;DHT22;56303;52.160;-0.428;2023-04-24T15:28:05;11.40;99.90
20744;DHT22;56303;52.160;-0.428;2023-04-24T15:30:32;11.40;99.90
20744;DHT22;56303;52.160;-0.428;2023-04-24T15:33:00;11.50;99.90
20744;DHT22;56303;52.160;-0.428;2023-04-24T15:35:27;11.50;99.90
20744;DHT22;56303;52.160;-0.428;2023-04-24T15:37:54;11.60;99.90
20744;DHT22;56303;52.160;-0.428;2023-04-24T15:40:22;11.20;99.90
20744;DHT22;56303;52.160;-0.428;2023-04-24T15:42:48;11.30;99.90